Terminal Aerodrome Forecast
Issued by NWS

Home | Current Version | Previous Version | Text Only | Print | Product List | Glossary Off
Versions: 1 2 3 4 5 6 7 8 9 10 11 12 13 14 15 16 17 18 19 20 21 22 23 24 25 26 27 28 29 30 31 32 33 34 35

000
FTUS43 KLOT 150300 AAA
TAFDPA
TAF AMD
KDPA 150300Z 1503/1524 17012KT P6SM OVC040
     FM150600 18012KT P6SM VCSH OVC035
     FM150900 19012KT 5SM -SHRA SCT020 OVC035
     FM151100 20010KT 3SM -RA BR OVC007
     FM151700 25012G18KT P6SM SCT007 BKN015
     FM151900 28016G24KT P6SM SCT020=

USA.gov is the U.S. government's official web portal to all federal, state and local government web resources and services.